sensor_id;sensor_type;location;lat;lon;timestamp;temperature;humidity
431;DHT22;202;48.764;9.172;2023-12-22T00:58:56;9.60;55.20
431;DHT22;202;48.764;9.172;2023-12-22T01:06:02;9.50;57.10
431;DHT22;202;48.764;9.172;2023-12-22T01:12:56;9.40;58.50
431;DHT22;202;48.764;9.172;2023-12-22T01:21:23;9.50;54.90
431;DHT22;202;48.764;9.172;2023-12-22T01:33:25;9.50;50.00
431;DHT22;202;48.764;9.172;2023-12-22T01:36:52;9.40;50.40
431;DHT22;202;48.764;9.172;2023-12-22T01:40:25;9.40;50.20
431;DHT22;202;48.764;9.172;2023-12-22T01:43:41;9.40;49.00
431;DHT22;202;48.764;9.172;2023-12-22T01:58:36;9.30;43.00
431;DHT22;202;48.764;9.172;2023-12-22T02:02:09;9.30;42.60
431;DHT22;202;48.764;9.172;2023-12-22T02:05:28;9.30;41.50
431;DHT22;202;48.764;9.172;2023-12-22T02:08:31;9.30;40.80
431;DHT22;202;48.764;9.172;2023-12-22T02:11:19;9.30;41.90
431;DHT22;202;48.764;9.172;2023-12-22T02:14:03;9.20;40.20
431;DHT22;202;48.764;9.172;2023-12-22T02:16:44;9.30;42.10
431;DHT22;202;48.764;9.172;2023-12-22T02:19:34;9.10;42.00
431;DHT22;202;48.764;9.172;2023-12-22T02:25:54;9.20;41.70
431;DHT22;202;48.764;9.172;2023-12-22T02:30:06;9.20;41.50
431;DHT22;202;48.764;9.172;2023-12-22T02:32:25;9.20;41.30
431;DHT22;202;48.764;9.172;2023-12-22T02:35:19;9.20;39.60
431;DHT22;202;48.764;9.172;2023-12-22T02:39:08;9.10;39.90
431;DHT22;202;48.764;9.172;2023-12-22T02:55:55;9.20;37.80
431;DHT22;202;48.764;9.172;2023-12-22T03:02:46;9.20;38.20
431;DHT22;202;48.764;9.172;2023-12-22T03:05:50;9.20;38.50
431;DHT22;202;48.764;9.172;2023-12-22T03:08:33;9.20;37.30
431;DHT22;202;48.764;9.172;2023-12-22T03:11:34;9.30;37.30
431;DHT22;202;48.764;9.172;2023-12-22T03:14:43;9.30;37.60
431;DHT22;202;48.764;9.172;2023-12-22T03:17:32;9.30;38.20
431;DHT22;202;48.764;9.172;2023-12-22T03:44:49;9.40;34.20
431;DHT22;202;48.764;9.172;2023-12-22T03:50:47;9.50;34.20
431;DHT22;202;48.764;9.172;2023-12-22T03:53:47;9.50;34.20
431;DHT22;202;48.764;9.172;2023-12-22T03:56:47;9.50;34.20
431;DHT22;202;48.764;9.172;2023-12-22T03:59:47;9.40;38.40
431;DHT22;202;48.764;9.172;2023-12-22T04:06:24;9.30;42.40
431;DHT22;202;48.764;9.172;2023-12-22T04:16:42;9.10;45.90
431;DHT22;202;48.764;9.172;2023-12-22T04:33:11;8.90;50.00
431;DHT22;202;48.764;9.172;2023-12-22T04:36:26;8.90;49.40
431;DHT22;202;48.764;9.172;2023-12-22T06:55:57;9.60;34.30
431;DHT22;202;48.764;9.172;2023-12-22T06:58:45;9.50;34.20
431;DHT22;202;48.764;9.172;2023-12-22T07:02:13;9.50;34.30
431;DHT22;202;48.764;9.172;2023-12-22T07:05:37;9.60;34.30
431;DHT22;202;48.764;9.172;2023-12-22T07:08:24;9.60;34.80
431;DHT22;202;48.764;9.172;2023-12-22T07:10:57;9.50;35.50
431;DHT22;202;48.764;9.172;2023-12-22T07:13:24;9.50;36.20
431;DHT22;202;48.764;9.172;2023-12-22T07:15:58;9.50;36.40
431;DHT22;202;48.764;9.172;2023-12-22T07:18:50;9.60;36.90
431;DHT22;202;48.764;9.172;2023-12-22T07:28:41;9.60;39.10
431;DHT22;202;48.764;9.172;2023-12-22T07:35:02;9.60;39.60
431;DHT22;202;48.764;9.172;2023-12-22T07:37:42;9.50;39.50
431;DHT22;202;48.764;9.172;2023-12-22T07:44:00;9.50;39.20
431;DHT22;202;48.764;9.172;2023-12-22T07:46:27;9.50;40.10
431;DHT22;202;48.764;9.172;2023-12-22T07:48:54;9.50;39.20
431;DHT22;202;48.764;9.172;2023-12-22T07:51:21;9.50;39.80
431;DHT22;202;48.764;9.172;2023-12-22T07:54:03;9.50;40.50
431;DHT22;202;48.764;9.172;2023-12-22T07:56:36;9.50;40.60
431;DHT22;202;48.764;9.172;2023-12-22T07:59:46;9.60;41.10
431;DHT22;202;48.764;9.172;2023-12-22T08:02:35;9.50;41.90
431;DHT22;202;48.764;9.172;2023-12-22T08:12:47;9.40;46.20
431;DHT22;202;48.764;9.172;2023-12-22T08:19:13;9.40;48.00
431;DHT22;202;48.764;9.172;2023-12-22T08:27:59;9.20;51.50
431;DHT22;202;48.764;9.172;2023-12-22T08:31:04;9.10;52.40
431;DHT22;202;48.764;9.172;2023-12-22T09:04:21;9.20;49.40
431;DHT22;202;48.764;9.172;2023-12-22T09:06:59;9.20;50.40
431;DHT22;202;48.764;9.172;2023-12-22T09:10:28;9.20;48.70
431;DHT22;202;48.764;9.172;2023-12-22T09:13:13;9.20;47.90
431;DHT22;202;48.764;9.172;2023-12-22T09:15:43;9.30;48.00
431;DHT22;202;48.764;9.172;2023-12-22T09:18:12;9.30;47.10
431;DHT22;202;48.764;9.172;2023-12-22T09:20:40;9.30;46.00
431;DHT22;202;48.764;9.172;2023-12-22T09:23:07;9.30;45.10
431;DHT22;202;48.764;9.172;2023-12-22T09:25:35;9.40;45.10
431;DHT22;202;48.764;9.172;2023-12-22T09:28:03;9.40;43.50
431;DHT22;202;48.764;9.172;2023-12-22T09:34:26;9.50;41.40
431;DHT22;202;48.764;9.172;2023-12-22T09:37:29;9.50;41.70
431;DHT22;202;48.764;9.172;2023-12-22T09:39:57;9.50;41.10
431;DHT22;202;48.764;9.172;2023-12-22T09:42:44;9.50;39.70
431;DHT22;202;48.764;9.172;2023-12-22T09:45:39;9.50;39.90
431;DHT22;202;48.764;9.172;2023-12-22T09:48:20;9.50;39.20
431;DHT22;202;48.764;9.172;2023-12-22T09:51:13;9.60;39.40
431;DHT22;202;48.764;9.172;2023-12-22T09:53:57;9.60;39.90
431;DHT22;202;48.764;9.172;2023-12-22T09:56:39;9.60;39.30
431;DHT22;202;48.764;9.172;2023-12-22T09:59:18;9.60;39.00
431;DHT22;202;48.764;9.172;2023-12-22T10:02:02;9.70;38.60
431;DHT22;202;48.764;9.172;2023-12-22T10:04:54;9.70;38.40
431;DHT22;202;48.764;9.172;2023-12-22T10:07:36;9.70;38.30
431;DHT22;202;48.764;9.172;2023-12-22T10:10:38;9.70;38.90
431;DHT22;202;48.764;9.172;2023-12-22T10:13:56;9.80;37.90
431;DHT22;202;48.764;9.172;2023-12-22T10:17:06;9.80;37.40
431;DHT22;202;48.764;9.172;2023-12-22T10:19:48;9.80;37.60
431;DHT22;202;48.764;9.172;2023-12-22T10:22:28;9.80;37.60
431;DHT22;202;48.764;9.172;2023-12-22T10:25:08;9.90;36.90
431;DHT22;202;48.764;9.172;2023-12-22T10:31:26;9.90;36.30
431;DHT22;202;48.764;9.172;2023-12-22T10:36:56;9.90;36.50
431;DHT22;202;48.764;9.172;2023-12-22T10:39:36;10.00;35.30
431;DHT22;202;48.764;9.172;2023-12-22T10:42:45;10.00;35.70
431;DHT22;202;48.764;9.172;2023-12-22T10:45:18;10.00;36.10
431;DHT22;202;48.764;9.172;2023-12-22T10:48:03;10.00;37.50
431;DHT22;202;48.764;9.172;2023-12-22T10:50:48;10.10;37.00
431;DHT22;202;48.764;9.172;2023-12-22T10:53:28;10.10;37.50
431;DHT22;202;48.764;9.172;2023-12-22T10:56:21;10.10;37.60
431;DHT22;202;48.764;9.172;2023-12-22T11:05:22;10.00;39.30
431;DHT22;202;48.764;9.172;2023-12-22T11:08:32;9.90;41.40
431;DHT22;202;48.764;9.172;2023-12-22T11:17:42;9.90;44.30
431;DHT22;202;48.764;9.172;2023-12-22T11:20:15;9.90;44.60
431;DHT22;202;48.764;9.172;2023-12-22T11:22:51;9.90;44.50
431;DHT22;202;48.764;9.172;2023-12-22T11:25:47;9.90;45.60
431;DHT22;202;48.764;9.172;2023-12-22T11:29:14;9.80;47.60
431;DHT22;202;48.764;9.172;2023-12-22T11:35:29;9.80;49.10
431;DHT22;202;48.764;9.172;2023-12-22T11:41:21;9.80;51.10
431;DHT22;202;48.764;9.172;2023-12-22T11:47:47;9.80;50.50
431;DHT22;202;48.764;9.172;2023-12-22T11:50:38;9.80;51.30
431;DHT22;202;48.764;9.172;2023-12-22T11:53:21;9.80;52.30
431;DHT22;202;48.764;9.172;2023-12-22T11:57:00;9.80;52.80
431;DHT22;202;48.764;9.172;2023-12-22T11:59:31;9.80;53.10
431;DHT22;202;48.764;9.172;2023-12-22T12:05:52;9.70;53.50
431;DHT22;202;48.764;9.172;2023-12-22T12:09:03;9.70;54.20
431;DHT22;202;48.764;9.172;2023-12-22T12:12:11;9.70;54.00
431;DHT22;202;48.764;9.172;2023-12-22T12:19:54;9.60;53.90
431;DHT22;202;48.764;9.172;2023-12-22T13:18:03;9.60;57.20
431;DHT22;202;48.764;9.172;2023-12-22T13:24:43;9.80;57.20
431;DHT22;202;48.764;9.172;2023-12-22T13:59:12;10.40;53.70
431;DHT22;202;48.764;9.172;2023-12-22T14:02:14;10.50;53.80
431;DHT22;202;48.764;9.172;2023-12-22T16:09:20;11.10;43.20
431;DHT22;202;48.764;9.172;2023-12-22T17:22:25;11.10;43.60
431;DHT22;202;48.764;9.172;2023-12-22T21:29:03;10.70;44.30
431;DHT22;202;48.764;9.172;2023-12-22T21:36:10;10.60;44.20
431;DHT22;202;48.764;9.172;2023-12-22T21:38:43;10.60;44.20
431;DHT22;202;48.764;9.172;2023-12-22T21:41:29;10.60;43.60
431;DHT22;202;48.764;9.172;2023-12-22T21:44:13;10.70;43.10
431;DHT22;202;48.764;9.172;2023-12-22T21:46:50;10.60;42.80
431;DHT22;202;48.764;9.172;2023-12-22T23:18:50;10.70;39.40
431;DHT22;202;48.764;9.172;2023-12-22T23:22:02;10.70;40.10
431;DHT22;202;48.764;9.172;2023-12-22T23:25:33;10.60;40.00
431;DHT22;202;48.764;9.172;2023-12-22T23:32:00;10.60;41.40
431;DHT22;202;48.764;9.172;2023-12-22T23:35:14;10.50;41.90
431;DHT22;202;48.764;9.172;2023-12-22T23:38:07;10.50;41.20
431;DHT22;202;48.764;9.172;2023-12-22T23:40:48;10.50;40.70
431;DHT22;202;48.764;9.172;2023-12-22T23:43:21;10.50;41.00
431;DHT22;202;48.764;9.172;2023-12-22T23:46:17;10.50;41.20
431;DHT22;202;48.764;9.172;2023-12-22T23:49:14;10.50;40.60
431;DHT22;202;48.764;9.172;2023-12-22T23:52:11;10.50;40.10
431;DHT22;202;48.764;9.172;2023-12-22T23:55:04;10.40;40.00
431;DHT22;202;48.764;9.172;2023-12-22T23:58:11;10.50;40.40
